KMIC/MIC METAR and TAF weather

Enter ICAO airport designator
Station Type Date Time Source
KMIC METAR 2019/12/08 16:53 UTC NOAA

KMIC 081653Z 33005KT 6SM BR OVC007 M01/M03 A2979 RMK AO2 SLP094 T10061028


Station Type Date Time Source
KMIC Decoded METAR 2019/12/08 16:53 UTC NOAA

CRYSTAL AIRPORT, MN, United States (KMIC) 45-04N 093-21W 265M
Dec 08, 2019 - 11:53 AM EST / 2019.12.08 1653 UTC
Wind: from the NNW (330 degrees) at 6 MPH (5 KT):0
Visibility: 6 mile(s):0
Sky conditions: overcast
Weather: mist
Temperature: 30.9 F (-0.6 C)
Windchill: 24 F (-4 C):1
Dew Point: 27.0 F (-2.8 C)
Relative Humidity: 85%
Pressure (altimeter): 29.79 in. Hg (1008 hPa)
ob: KMIC 081653Z 33005KT 6SM BR OVC007 M01/M03 A2979 RMK AO2 SLP094 T10061028
cycle: 17

Station Type Date Time Source
KMIC TAF UTC NOAA

Error!

Example: see airport list